createdAt,value
2023-07-18T00:01:44.676Z,29.96
2023-07-18T00:04:11.934Z,29.95
2023-07-18T00:06:42.878Z,29.93
2023-07-18T00:09:09.967Z,29.91
2023-07-18T00:11:37.718Z,29.89
2023-07-18T00:14:05.124Z,29.88
2023-07-18T00:16:32.321Z,29.85
2023-07-18T00:19:00.485Z,29.85
2023-07-18T00:21:28.453Z,29.85
2023-07-18T00:23:55.675Z,29.83
2023-07-18T00:26:25.618Z,29.82
2023-07-18T00:28:54.322Z,29.81
2023-07-18T00:31:22.436Z,29.78
2023-07-18T00:33:50.006Z,29.75
2023-07-18T00:36:18.034Z,29.73
2023-07-18T00:38:45.521Z,29.70
2023-07-18T00:41:12.783Z,29.67
2023-07-18T00:43:39.991Z,29.64
2023-07-18T00:46:09.516Z,29.62
2023-07-18T00:48:38.050Z,29.61
2023-07-18T00:51:06.133Z,29.58
2023-07-18T00:53:33.893Z,29.58
2023-07-18T00:56:03.063Z,29.57
2023-07-18T00:58:31.414Z,29.55
2023-07-18T01:01:01.521Z,29.54
2023-07-18T01:03:30.858Z,29.52
2023-07-18T01:05:58.206Z,29.49
2023-07-18T01:08:26.098Z,29.47
2023-07-18T01:10:53.326Z,29.45
2023-07-18T01:13:20.641Z,29.41
2023-07-18T01:15:48.073Z,29.39
2023-07-18T01:18:15.972Z,29.35
2023-07-18T01:20:46.148Z,29.33
2023-07-18T01:23:15.071Z,29.34
2023-07-18T01:25:43.477Z,29.32
2023-07-18T01:28:11.898Z,29.31
2023-07-18T01:30:39.267Z,29.28
2023-07-18T01:33:06.573Z,29.27
2023-07-18T01:35:34.296Z,29.23
2023-07-18T01:38:01.509Z,29.23
2023-07-18T01:40:28.862Z,29.21
2023-07-18T01:42:58.613Z,29.20
2023-07-18T01:45:29.199Z,29.20
2023-07-18T01:47:57.915Z,29.18
2023-07-18T01:50:25.271Z,29.17
2023-07-18T01:52:52.558Z,29.12
2023-07-18T01:55:21.090Z,29.10
2023-07-18T01:57:50.945Z,29.11
2023-07-18T02:00:22.461Z,29.10
2023-07-18T02:02:54.067Z,29.08
2023-07-18T02:05:29.121Z,29.07
2023-07-18T02:07:58.986Z,29.01
2023-07-18T02:10:27.395Z,28.98
2023-07-18T02:12:57.854Z,28.97
2023-07-18T02:15:25.368Z,28.97
2023-07-18T02:17:53.153Z,28.93
2023-07-18T02:20:20.331Z,28.92
2023-07-18T02:22:48.799Z,28.90
2023-07-18T02:25:19.292Z,28.87
2023-07-18T02:27:47.310Z,28.83
2023-07-18T02:30:15.877Z,28.80
2023-07-18T02:32:44.235Z,28.80
2023-07-18T02:35:19.276Z,28.79
2023-07-18T02:37:47.728Z,28.74
2023-07-18T02:40:18.293Z,28.77
2023-07-18T02:42:45.498Z,28.78
2023-07-18T02:45:14.903Z,28.75
2023-07-18T02:47:42.157Z,28.71
2023-07-18T02:50:10.310Z,28.68
2023-07-18T02:52:37.458Z,28.64
2023-07-18T02:55:05.366Z,28.63
2023-07-18T02:57:32.886Z,28.60
2023-07-18T03:00:00.944Z,28.58
2023-07-18T03:02:30.493Z,28.56
2023-07-18T03:04:57.823Z,28.48
2023-07-18T03:07:25.188Z,28.50
2023-07-18T03:09:52.417Z,28.47
2023-07-18T03:12:19.587Z,28.44
2023-07-18T03:14:46.561Z,28.41
2023-07-18T03:17:15.187Z,28.38
2023-07-18T03:19:42.152Z,28.35
2023-07-18T03:22:09.571Z,28.31
2023-07-18T03:24:36.736Z,28.27
2023-07-18T03:27:04.804Z,28.27
2023-07-18T03:29:32.333Z,28.28
2023-07-18T03:32:02.240Z,28.27
2023-07-18T03:34:29.927Z,28.25
2023-07-18T03:36:57.213Z,28.23
2023-07-18T03:39:24.630Z,28.20
2023-07-18T03:41:51.857Z,28.19
2023-07-18T03:44:18.912Z,28.17
2023-07-18T03:46:46.090Z,28.16
2023-07-18T03:49:13.199Z,28.12
2023-07-18T03:51:40.466Z,28.08
2023-07-18T03:54:07.628Z,28.04
2023-07-18T03:56:35.010Z,28.01
2023-07-18T03:59:02.110Z,27.96
2023-07-18T04:01:29.221Z,27.94
2023-07-18T04:03:56.305Z,27.94
2023-07-18T04:06:23.827Z,27.94
2023-07-18T04:08:50.797Z,27.95
2023-07-18T04:11:19.160Z,27.94
2023-07-18T04:13:46.547Z,27.90
2023-07-18T04:16:13.900Z,27.89
2023-07-18T04:18:41.277Z,27.91
2023-07-18T04:21:08.360Z,27.92
2023-07-18T04:23:35.504Z,27.96
2023-07-18T04:26:04.378Z,28.01
2023-07-18T04:28:35.122Z,28.03
2023-07-18T04:31:03.408Z,28.03
2023-07-18T04:33:36.750Z,28.03
2023-07-18T04:36:06.059Z,28.06
2023-07-18T04:38:34.459Z,28.07
2023-07-18T04:41:02.531Z,28.09
2023-07-18T04:43:30.049Z,28.10
2023-07-18T04:45:57.307Z,28.11
2023-07-18T04:48:24.584Z,28.13
2023-07-18T04:50:59.760Z,28.14
2023-07-18T04:53:29.050Z,28.10
2023-07-18T04:55:57.074Z,28.15
2023-07-18T04:58:26.250Z,28.16
2023-07-18T05:00:56.193Z,28.17
2023-07-18T05:03:24.894Z,28.19
2023-07-18T05:05:52.273Z,28.19
2023-07-18T05:08:21.699Z,28.19
2023-07-18T05:10:49.075Z,28.19
2023-07-18T05:13:16.812Z,28.18
2023-07-18T05:15:44.227Z,28.20
2023-07-18T05:18:11.340Z,28.21
2023-07-18T05:20:39.689Z,28.22
2023-07-18T05:23:06.999Z,28.22
2023-07-18T05:25:34.551Z,28.24
2023-07-18T05:28:01.767Z,28.24
2023-07-18T05:30:29.005Z,28.26
2023-07-18T05:32:55.979Z,28.25
2023-07-18T05:35:23.283Z,28.22
2023-07-18T05:37:50.499Z,28.22
2023-07-18T05:40:21.751Z,28.22
2023-07-18T05:42:50.318Z,28.22
2023-07-18T05:45:17.514Z,28.23
2023-07-18T05:47:44.842Z,28.25
2023-07-18T05:50:12.598Z,28.25
2023-07-18T05:52:39.974Z,28.25
2023-07-18T05:55:09.030Z,28.28
2023-07-18T05:57:36.081Z,28.27
2023-07-18T06:00:07.873Z,28.30
2023-07-18T06:02:41.146Z,28.31
2023-07-18T06:05:09.136Z,28.31
2023-07-18T06:07:36.180Z,28.32
2023-07-18T06:10:04.623Z,28.33
2023-07-18T06:12:31.792Z,28.34
2023-07-18T06:14:59.062Z,28.33
2023-07-18T06:17:26.244Z,28.34
2023-07-18T06:19:53.434Z,28.35
2023-07-18T06:22:20.585Z,28.35
2023-07-18T06:24:48.421Z,28.35
2023-07-18T06:27:15.541Z,28.36
2023-07-18T06:29:42.556Z,28.38
2023-07-18T06:32:10.018Z,28.39
2023-07-18T06:34:41.887Z,28.42
2023-07-18T06:37:11.475Z,28.41
2023-07-18T06:39:39.425Z,28.42
2023-07-18T06:42:10.070Z,28.43
2023-07-18T06:44:37.109Z,28.46
2023-07-18T06:47:04.653Z,28.46
2023-07-18T06:49:32.357Z,28.47
2023-07-18T06:51:59.675Z,28.47
2023-07-18T06:54:26.710Z,28.49
2023-07-18T06:56:53.877Z,28.48
2023-07-18T06:59:21.051Z,28.49
2023-07-18T07:01:48.224Z,28.49
2023-07-18T07:04:16.410Z,28.50
2023-07-18T07:06:43.745Z,28.50
2023-07-18T07:09:14.690Z,28.50
2023-07-18T07:11:43.565Z,28.52
2023-07-18T07:14:12.409Z,28.53
2023-07-18T07:16:40.346Z,28.52
2023-07-18T07:19:07.997Z,28.54
2023-07-18T07:21:35.249Z,28.54
2023-07-18T07:24:04.434Z,28.55
2023-07-18T07:26:31.503Z,28.53
2023-07-18T07:28:59.176Z,28.53
2023-07-18T07:31:26.580Z,28.52
2023-07-18T07:33:54.409Z,28.52
2023-07-18T07:36:22.415Z,28.52
2023-07-18T07:38:50.325Z,28.52
2023-07-18T07:41:18.118Z,28.53
2023-07-18T07:43:45.638Z,28.53
2023-07-18T07:46:12.887Z,28.52
2023-07-18T07:48:40.170Z,28.53
2023-07-18T07:51:07.646Z,28.54
2023-07-18T07:53:34.723Z,28.54
2023-07-18T07:56:01.763Z,28.54
2023-07-18T07:58:28.738Z,28.54
2023-07-18T08:00:56.121Z,28.54
2023-07-18T08:03:23.217Z,28.55
2023-07-18T08:05:50.335Z,28.54
2023-07-18T08:08:19.266Z,28.55
2023-07-18T08:10:46.506Z,28.56
2023-07-18T08:13:15.721Z,28.56
2023-07-18T08:15:42.786Z,28.56
2023-07-18T08:18:09.897Z,28.57
2023-07-18T08:20:38.049Z,28.58
2023-07-18T08:23:05.131Z,28.58
2023-07-18T08:25:34.554Z,28.59
2023-07-18T08:28:01.741Z,28.60
2023-07-18T08:30:28.898Z,28.63
2023-07-18T08:32:56.084Z,28.62
2023-07-18T08:35:24.214Z,28.63
2023-07-18T08:37:51.159Z,28.65
2023-07-18T08:40:18.701Z,28.65
2023-07-18T08:42:46.916Z,28.66
2023-07-18T08:45:16.423Z,28.66
2023-07-18T08:47:45.008Z,28.67
2023-07-18T08:50:12.942Z,28.69
2023-07-18T08:52:41.117Z,28.69
2023-07-18T08:55:09.205Z,28.70
2023-07-18T08:57:37.037Z,28.70
2023-07-18T09:00:05.898Z,28.69
2023-07-18T09:02:33.441Z,28.71
2023-07-18T09:05:00.855Z,28.71
2023-07-18T09:07:28.674Z,28.71
2023-07-18T09:09:59.253Z,28.72
2023-07-18T09:12:29.009Z,28.73
2023-07-18T09:14:59.196Z,28.73
2023-07-18T09:17:26.602Z,28.73
2023-07-18T09:19:53.848Z,28.74
2023-07-18T09:22:21.109Z,28.74
2023-07-18T09:24:49.438Z,28.75
2023-07-18T09:27:20.789Z,28.75
2023-07-18T09:29:51.053Z,28.77
2023-07-18T09:32:19.600Z,28.78
2023-07-18T09:34:59.091Z,28.78
2023-07-18T09:37:26.572Z,28.80
2023-07-18T09:39:55.426Z,28.80
2023-07-18T09:42:25.655Z,28.80
2023-07-18T09:44:54.025Z,28.81
2023-07-18T09:47:22.158Z,28.82
2023-07-18T09:49:50.598Z,28.84
2023-07-18T09:52:24.591Z,28.83
2023-07-18T09:54:54.444Z,28.85
2023-07-18T09:57:23.073Z,28.86
2023-07-18T09:59:50.604Z,28.87
2023-07-18T10:02:18.993Z,28.88
2023-07-18T10:04:47.142Z,28.90
2023-07-18T10:07:14.600Z,28.90
2023-07-18T10:09:41.839Z,28.92
2023-07-18T10:12:10.930Z,28.93
2023-07-18T10:14:57.967Z,28.95
2023-07-18T10:17:38.662Z,28.94
2023-07-18T10:20:32.660Z,28.93
2023-07-18T10:23:01.586Z,28.98
2023-07-18T10:25:31.140Z,28.98
2023-07-18T10:28:00.205Z,29.00
2023-07-18T10:30:39.532Z,29.01
2023-07-18T10:33:09.970Z,29.02
2023-07-18T10:35:45.321Z,29.03
2023-07-18T10:38:15.673Z,29.04
2023-07-18T10:40:45.396Z,29.05
2023-07-18T10:43:20.073Z,29.07
2023-07-18T10:45:47.971Z,29.08
2023-07-18T10:48:21.103Z,29.10
2023-07-18T10:50:49.437Z,29.11
2023-07-18T10:53:21.765Z,29.13
2023-07-18T10:55:50.036Z,29.14
2023-07-18T10:58:20.426Z,29.15
2023-07-18T11:00:50.844Z,29.16
2023-07-18T11:03:36.046Z,29.17
2023-07-18T11:06:08.818Z,29.18
2023-07-18T11:08:36.168Z,29.19
2023-07-18T11:11:05.256Z,29.20
2023-07-18T11:13:37.972Z,29.21
2023-07-18T11:16:14.233Z,29.22
2023-07-18T11:18:51.917Z,29.24
2023-07-18T11:21:20.632Z,29.26
2023-07-18T11:23:48.705Z,29.28
2023-07-18T11:26:19.268Z,29.28
2023-07-18T11:28:51.191Z,29.29
2023-07-18T11:34:03.052Z,29.31
2023-07-18T11:36:32.804Z,29.33
2023-07-18T11:39:05.060Z,29.33
2023-07-18T11:41:36.019Z,29.35
2023-07-18T11:44:08.098Z,29.36
2023-07-18T11:46:45.957Z,29.35
2023-07-18T11:49:14.067Z,29.36
2023-07-18T11:51:42.012Z,29.39
2023-07-18T11:54:09.507Z,29.40
2023-07-18T11:56:38.175Z,29.39
2023-07-18T11:59:05.990Z,29.42
2023-07-18T12:01:38.265Z,29.44
2023-07-18T12:04:13.764Z,29.44
2023-07-18T12:06:42.392Z,29.46
2023-07-18T12:09:09.606Z,29.47
2023-07-18T12:11:36.621Z,29.48
2023-07-18T12:14:06.333Z,29.48
2023-07-18T12:16:33.975Z,29.50
2023-07-18T12:19:00.981Z,29.51
2023-07-18T12:21:28.229Z,29.53
2023-07-18T12:23:55.397Z,29.54
2023-07-18T12:26:23.629Z,29.55
2023-07-18T12:28:55.320Z,29.55
2023-07-18T12:31:23.151Z,29.58
2023-07-18T12:33:50.412Z,29.60
2023-07-18T12:36:17.802Z,29.61
2023-07-18T12:38:45.026Z,29.62
2023-07-18T12:41:12.009Z,29.63
2023-07-18T12:43:39.024Z,29.64
2023-07-18T12:46:07.493Z,29.66
2023-07-18T12:48:34.715Z,29.68
2023-07-18T12:51:04.191Z,29.69
2023-07-18T12:53:31.375Z,29.69
2023-07-18T12:55:58.463Z,29.70
2023-07-18T12:58:25.595Z,29.72
2023-07-18T13:00:52.882Z,29.74
2023-07-18T13:03:20.219Z,29.75
2023-07-18T13:05:47.390Z,29.77
2023-07-18T13:08:14.539Z,29.79
2023-07-18T13:10:41.556Z,29.82
2023-07-18T13:13:08.670Z,29.85
2023-07-18T13:15:36.027Z,29.90
2023-07-18T13:18:03.240Z,29.94
2023-07-18T13:20:30.489Z,29.99
2023-07-18T13:22:57.700Z,30.03
2023-07-18T13:25:24.859Z,30.08
2023-07-18T13:27:51.924Z,30.15
2023-07-18T13:30:19.761Z,30.21
2023-07-18T13:32:47.014Z,30.27
2023-07-18T13:35:14.328Z,30.33
2023-07-18T13:37:41.704Z,30.39
2023-07-18T13:40:09.429Z,30.45
2023-07-18T13:42:36.611Z,30.50
2023-07-18T13:45:08.942Z,30.58
2023-07-18T13:47:38.319Z,30.63
2023-07-18T13:50:17.711Z,30.68
2023-07-18T13:52:45.392Z,30.72
2023-07-18T13:55:12.574Z,30.77
2023-07-18T13:57:39.569Z,30.81
2023-07-18T14:00:09.070Z,30.87
2023-07-18T14:02:43.675Z,30.91
2023-07-18T14:05:11.756Z,30.98
2023-07-18T14:07:39.056Z,31.04
2023-07-18T14:10:07.483Z,31.10
2023-07-18T14:12:34.624Z,31.17
2023-07-18T14:15:02.010Z,31.21
2023-07-18T14:17:30.184Z,31.26
2023-07-18T14:19:57.561Z,31.31
2023-07-18T14:22:26.090Z,31.33
2023-07-18T14:24:53.167Z,31.34
2023-07-18T14:27:20.223Z,31.37
2023-07-18T14:29:47.213Z,31.38
2023-07-18T14:32:14.432Z,31.40
2023-07-18T14:34:41.665Z,31.41
2023-07-18T14:37:08.809Z,31.42
2023-07-18T14:39:39.693Z,31.44
2023-07-18T14:42:08.201Z,31.46
2023-07-18T14:44:36.533Z,31.46
2023-07-18T14:47:04.609Z,31.48
2023-07-18T14:49:32.127Z,31.50
2023-07-18T14:51:59.245Z,31.53
2023-07-18T14:54:26.423Z,31.56
2023-07-18T14:56:53.404Z,31.57
2023-07-18T14:59:20.674Z,31.60
2023-07-18T15:01:47.776Z,31.62
2023-07-18T15:04:15.056Z,31.62
2023-07-18T15:06:42.098Z,31.63
2023-07-18T15:09:09.069Z,31.64
2023-07-18T15:11:36.451Z,31.64
2023-07-18T15:14:03.536Z,31.64
2023-07-18T15:16:30.843Z,31.62
2023-07-18T15:18:58.167Z,31.63
2023-07-18T15:21:25.271Z,31.63
2023-07-18T15:23:52.403Z,31.62
2023-07-18T15:26:19.763Z,31.61
2023-07-18T15:28:47.312Z,31.62
2023-07-18T15:31:14.708Z,31.61
2023-07-18T15:33:41.898Z,31.64
2023-07-18T15:36:09.292Z,31.61
2023-07-18T15:38:36.696Z,31.61
2023-07-18T15:41:03.800Z,31.62
2023-07-18T15:43:32.244Z,31.62
2023-07-18T15:45:59.521Z,31.64
2023-07-18T15:48:28.128Z,31.66
2023-07-18T15:50:55.161Z,31.67
2023-07-18T15:53:22.329Z,31.67
2023-07-18T15:55:51.705Z,31.69
2023-07-18T15:58:19.793Z,31.69
2023-07-18T16:00:47.006Z,31.71
2023-07-18T16:03:14.161Z,31.71
2023-07-18T16:05:41.472Z,31.72
2023-07-18T16:08:08.493Z,31.72
2023-07-18T16:10:35.576Z,31.72
2023-07-18T16:13:02.640Z,31.73
2023-07-18T16:15:29.761Z,31.74
2023-07-18T16:17:57.309Z,31.74
2023-07-18T16:20:24.400Z,31.74
2023-07-18T16:22:53.734Z,31.75
2023-07-18T16:25:21.038Z,31.74
2023-07-18T16:27:50.312Z,31.73
2023-07-18T16:30:19.418Z,31.73
2023-07-18T16:32:47.027Z,31.73
2023-07-18T16:35:14.893Z,31.73
2023-07-18T16:37:43.319Z,31.73
2023-07-18T16:40:11.838Z,31.73
2023-07-18T16:42:38.879Z,31.73
2023-07-18T16:45:06.747Z,31.74
2023-07-18T16:47:33.858Z,31.73
2023-07-18T16:50:00.922Z,31.74
2023-07-18T16:52:28.516Z,31.73
2023-07-18T16:54:55.794Z,31.73
2023-07-18T16:57:22.809Z,31.73
2023-07-18T16:59:49.815Z,31.70
2023-07-18T17:02:17.306Z,31.68
2023-07-18T17:04:44.377Z,31.68
2023-07-18T17:07:12.073Z,31.68
2023-07-18T17:09:39.563Z,31.67
2023-07-18T17:12:07.307Z,31.65
2023-07-18T17:14:34.493Z,31.65
2023-07-18T17:17:02.140Z,31.65
2023-07-18T17:19:29.507Z,31.63
2023-07-18T17:21:56.564Z,31.63
2023-07-18T17:24:23.586Z,31.63
2023-07-18T17:26:50.690Z,31.62
2023-07-18T17:29:19.323Z,31.61
2023-07-18T17:31:47.199Z,31.61
2023-07-18T17:34:14.454Z,31.61
2023-07-18T17:36:41.663Z,31.62
2023-07-18T17:39:08.897Z,31.64
2023-07-18T17:41:36.611Z,31.65
2023-07-18T17:44:04.984Z,31.66
2023-07-18T17:46:32.233Z,31.67
2023-07-18T17:48:59.538Z,31.66
2023-07-18T17:51:26.681Z,31.67
2023-07-18T17:53:56.241Z,31.67
2023-07-18T17:56:23.823Z,31.67
2023-07-18T17:58:50.959Z,31.67
2023-07-18T18:01:18.740Z,31.67
2023-07-18T18:03:46.318Z,31.66
2023-07-18T18:06:13.639Z,31.66
2023-07-18T18:08:40.764Z,31.65
2023-07-18T18:11:07.939Z,31.64
2023-07-18T18:13:35.092Z,31.61
2023-07-18T18:16:08.855Z,31.61
2023-07-18T18:18:36.910Z,31.59
2023-07-18T18:21:04.714Z,31.57
2023-07-18T18:26:03.200Z,31.54
2023-07-18T18:28:30.448Z,31.51
2023-07-18T18:30:57.883Z,31.50
2023-07-18T18:33:25.114Z,31.49
2023-07-18T18:35:52.212Z,31.48
2023-07-18T18:38:19.276Z,31.47
2023-07-18T18:40:46.310Z,31.44
2023-07-18T18:43:14.447Z,31.43
2023-07-18T18:45:43.397Z,31.41
2023-07-18T18:48:11.186Z,31.39
2023-07-18T18:50:40.141Z,31.38
2023-07-18T18:53:08.157Z,31.36
2023-07-18T18:55:35.640Z,31.36
2023-07-18T18:58:02.745Z,31.33
2023-07-18T19:00:30.057Z,31.30
2023-07-18T19:02:59.260Z,31.29
2023-07-18T19:05:27.501Z,31.27
2023-07-18T19:07:54.721Z,31.26
2023-07-18T19:10:21.971Z,31.25
2023-07-18T19:12:49.168Z,31.23
2023-07-18T19:15:16.536Z,31.20
2023-07-18T19:17:43.855Z,31.19
2023-07-18T19:20:12.250Z,31.18
2023-07-18T19:22:39.556Z,31.15
2023-07-18T19:25:08.113Z,31.13
2023-07-18T19:27:36.543Z,31.11
2023-07-18T19:30:05.232Z,31.10
2023-07-18T19:32:32.899Z,31.08
2023-07-18T19:35:00.751Z,31.06
2023-07-18T19:37:28.023Z,31.04
2023-07-18T19:39:55.091Z,31.04
2023-07-18T19:42:22.681Z,31.00
2023-07-18T19:44:50.044Z,30.98
2023-07-18T19:47:17.137Z,30.96
2023-07-18T19:49:45.038Z,30.94
2023-07-18T19:52:12.369Z,30.94
2023-07-18T19:54:39.512Z,30.91
2023-07-18T19:57:06.899Z,30.88
2023-07-18T19:59:34.048Z,30.87
2023-07-18T20:02:01.344Z,30.85
2023-07-18T20:04:28.793Z,30.86
2023-07-18T20:06:55.959Z,30.82
2023-07-18T20:09:23.071Z,30.81
2023-07-18T20:11:50.275Z,30.79
2023-07-18T20:14:17.654Z,30.76
2023-07-18T20:16:45.319Z,30.75
2023-07-18T20:19:12.803Z,30.71
2023-07-18T20:21:42.968Z,30.69
2023-07-18T20:24:10.157Z,30.68
2023-07-18T20:26:37.537Z,30.65
2023-07-18T20:29:05.727Z,30.63
2023-07-18T20:31:33.197Z,30.61
2023-07-18T20:34:00.939Z,30.57
2023-07-18T20:36:28.443Z,30.57
2023-07-18T20:38:55.452Z,30.54
2023-07-18T20:41:22.792Z,30.52
2023-07-18T20:43:51.797Z,30.50
2023-07-18T20:46:18.980Z,30.48
2023-07-18T20:48:46.795Z,30.47
2023-07-18T20:51:13.790Z,30.43
2023-07-18T20:53:41.179Z,30.41
2023-07-18T20:56:08.610Z,30.40
2023-07-18T20:58:36.360Z,30.35
2023-07-18T21:01:03.548Z,30.33
2023-07-18T21:03:30.891Z,30.31
2023-07-18T21:05:58.263Z,30.28
2023-07-18T21:08:25.461Z,30.26
2023-07-18T21:10:52.533Z,30.24
2023-07-18T21:13:19.696Z,30.21
2023-07-18T21:15:46.941Z,30.18
2023-07-18T21:18:14.082Z,30.16
2023-07-18T21:20:41.176Z,30.14
2023-07-18T21:23:08.486Z,30.09
2023-07-18T21:25:35.840Z,30.08
2023-07-18T21:28:04.048Z,30.08
2023-07-18T21:30:32.037Z,30.05
2023-07-18T21:32:59.309Z,30.02
2023-07-18T21:35:26.590Z,30.01
2023-07-18T21:37:54.080Z,30.00
2023-07-18T21:40:21.223Z,29.97
2023-07-18T21:42:49.053Z,29.96
2023-07-18T21:45:17.024Z,29.95
2023-07-18T21:47:44.936Z,29.92
2023-07-18T21:50:12.548Z,29.90
2023-07-18T21:52:39.615Z,29.90
2023-07-18T21:55:08.216Z,29.90
2023-07-18T21:57:35.571Z,29.88
2023-07-18T22:00:03.022Z,29.87
2023-07-18T22:02:39.794Z,29.86
2023-07-18T22:05:07.976Z,29.84
2023-07-18T22:07:34.993Z,29.83
2023-07-18T22:10:03.314Z,29.80
2023-07-18T22:12:30.837Z,29.78
2023-07-18T22:14:58.156Z,29.76
2023-07-18T22:17:25.357Z,29.74
2023-07-18T22:19:52.526Z,29.73
2023-07-18T22:22:19.585Z,29.70
2023-07-18T22:24:46.653Z,29.70
2023-07-18T22:27:13.875Z,29.68
2023-07-18T22:29:41.422Z,29.68
2023-07-18T22:32:09.496Z,29.67
2023-07-18T22:34:36.790Z,29.66
2023-07-18T22:37:04.128Z,29.65
2023-07-18T22:39:36.508Z,29.64
2023-07-18T22:42:19.838Z,29.61
2023-07-18T22:44:48.227Z,29.59
2023-07-18T22:47:16.919Z,29.59
2023-07-18T22:49:45.251Z,29.57
2023-07-18T22:52:18.812Z,29.58
2023-07-18T22:54:49.206Z,29.57
2023-07-18T22:57:17.423Z,29.53
2023-07-18T22:59:45.130Z,29.55
2023-07-18T23:02:12.376Z,29.54
2023-07-18T23:04:40.165Z,29.52
2023-07-18T23:07:07.713Z,29.51
2023-07-18T23:09:34.825Z,29.50
2023-07-18T23:12:03.327Z,29.48
2023-07-18T23:14:30.716Z,29.49
2023-07-18T23:16:58.084Z,29.49
2023-07-18T23:19:25.967Z,29.49
2023-07-18T23:21:53.664Z,29.46
2023-07-18T23:24:21.000Z,29.45
2023-07-18T23:26:48.065Z,29.43
2023-07-18T23:29:15.892Z,29.39
2023-07-18T23:31:43.008Z,29.34
2023-07-18T23:34:10.227Z,29.29
2023-07-18T23:36:37.309Z,29.24
2023-07-18T23:39:06.688Z,29.23
2023-07-18T23:41:33.899Z,29.21
2023-07-18T23:44:01.025Z,29.19
2023-07-18T23:46:28.269Z,29.18
2023-07-18T23:48:55.360Z,29.16
2023-07-18T23:51:22.863Z,29.15
2023-07-18T23:53:50.388Z,29.13
2023-07-18T23:56:17.595Z,29.11
2023-07-18T23:58:44.731Z,29.08
